»·PEaware :: UAL241 KPHX-KLAS

UAL241 :: KPHX-KLAS

FLIGHT INFORMATION

Flight Status: Arrived
Operator:
United Airlines
More flights by this operator :: More flights under this callsign
Pilot: Ryan H. (12491)
Aircraft: BOEING 737-800
(B738)
More flights by this aircraft type
Origin: KPHX Phoenix Sky Harbor Intl
United States
Destination: KLAS McCarran Intl
United States
More flights between these airports :: More routes between these airports
Route: +MAYSA5 SISIE IGM TYSSN5
File this flight plan on PilotEdge
Remarks:
Altitude:
(Current/Filed)
280ft
Speed:
(Current/Filed)
450kts
Departed: 05-Jan-18 08:52 PM
Arrived: 05-Jan-18 09:34 PM
Distance/Time
Traveled:
222nm/0:42
Distance/Time
To Go:
Arrived

Flight Plot

Page will automatically refresh every two minutes.

Flight plan parsing failed; only flown route is shown


Map Options




Map Legend


Flown Route
Filed Route
Departure Airport
Arrival Airport
Navaid (VOR, NDB)
Fix

Horizontal Profiles

Position Reports

Time Latitude Longitude Heading Altitude Ground
Speed
05-Jan-18 20:47 33.436935 -112.008044 269 1144ft 0kts
05-Jan-18 20:48 33.436935 -112.008044 269 1144ft 0kts
05-Jan-18 20:49 33.436935 -112.008044 269 1144ft 0kts
05-Jan-18 20:50 33.436935 -112.008044 269 1144ft 0kts
05-Jan-18 20:51 33.436935 -112.008044 269 1144ft 0kts
05-Jan-18 20:52 33.436935 -112.008044 269 1144ft 0kts
05-Jan-18 20:53 33.436781 -112.007412 306 1144ft 3kts
05-Jan-18 20:54 33.438225 -112.007381 1 1144ft 17kts
05-Jan-18 20:55 33.439660 -112.000429 89 1144ft 40kts
05-Jan-18 20:56 33.439849 -111.992432 24 1144ft 0kts
05-Jan-18 20:57 33.440891 -111.992663 266 1144ft 8kts
05-Jan-18 20:58 33.439697 -112.032628 260 2720ft 178kts
05-Jan-18 20:59 33.448365 -112.093837 324 5792ft 226kts
05-Jan-18 21:00 33.505108 -112.144999 320 9149ft 275kts
05-Jan-18 21:01 33.578347 -112.188807 344 12149ft 327kts
05-Jan-18 21:02 33.674181 -112.219971 345 14286ft 388kts
05-Jan-18 21:03 33.781787 -112.254833 344 17265ft 410kts
05-Jan-18 21:04 33.894573 -112.291341 344 19939ft 427kts
05-Jan-18 21:05 34.010962 -112.330683 337 22220ft 443kts
05-Jan-18 21:06 34.111701 -112.418878 319 24161ft 457kts
05-Jan-18 21:07 34.210402 -112.519137 320 25854ft 468kts
05-Jan-18 21:08 34.310800 -112.620616 320 27704ft 467kts
05-Jan-18 21:09 34.410618 -112.721649 320 27996ft 469kts
05-Jan-18 21:10 34.510666 -112.823018 320 27999ft 467kts
05-Jan-18 21:11 34.609463 -112.925303 317 28000ft 468kts
05-Jan-18 21:12 34.705378 -113.031773 318 27999ft 467kts
05-Jan-18 21:13 34.802311 -113.137774 318 28000ft 467kts
05-Jan-18 21:14 34.898768 -113.243770 318 28000ft 467kts
05-Jan-18 21:15 34.991266 -113.354517 304 27999ft 469kts
05-Jan-18 21:16 35.056672 -113.492633 299 27999ft 469kts
05-Jan-18 21:17 35.120752 -113.631155 299 27999ft 469kts
05-Jan-18 21:18 35.184212 -113.768535 299 26451ft 463kts
05-Jan-18 21:19 35.247034 -113.904733 300 24073ft 441kts
05-Jan-18 21:20 35.331108 -114.000223 323 23109ft 399kts
05-Jan-18 21:21 35.418681 -114.081103 323 20711ft 386kts
05-Jan-18 21:22 35.502296 -114.159153 323 18027ft 373kts
05-Jan-18 21:23 35.582844 -114.234433 323 15690ft 356kts
05-Jan-18 21:24 35.661329 -114.307783 323 13701ft 349kts
05-Jan-18 21:25 35.736352 -114.377929 323 11900ft 316kts
05-Jan-18 21:26 35.811552 -114.415837 339 11252ft 283kts
05-Jan-18 21:27 35.882470 -114.448996 339 10778ft 255kts
05-Jan-18 21:28 35.944699 -114.478202 339 10378ft 236kts
05-Jan-18 21:29 36.005900 -114.506890 339 9980ft 230kts
05-Jan-18 21:30 36.043455 -114.557083 283 9437ft 203kts
05-Jan-18 21:31 36.055541 -114.624937 283 8114ft 200kts
05-Jan-18 21:32 36.067088 -114.691530 283 7722ft 197kts
05-Jan-18 21:33 36.073678 -114.759052 272 7717ft 199kts
05-Jan-18 21:34 36.073867 -114.825828 271 6865ft 186kts
05-Jan-18 21:35 36.073870 -114.889328 271 5932ft 180kts
05-Jan-18 21:36 36.073796 -114.947626 272 5032ft 151kts
05-Jan-18 21:37 36.073777 -114.999883 272 4213ft 152kts
05-Jan-18 21:38 36.073729 -115.052012 272 3391ft 150kts
05-Jan-18 21:39 36.073684 -115.103493 272 2587ft 149kts
05-Jan-18 21:40 36.073647 -115.145838 273 2190ft 38kts
05-Jan-18 21:41 36.074835 -115.150743 308 2190ft 0kts
05-Jan-18 21:42 36.077283 -115.152480 334 2190ft 19kts

Navigation Log

Ident Type
Flight plan parsing failed, navigation log unavailable